Time;durP1;ratioP1;P1;durP2;ratioP2;P2;SDS_P1;SDS_P2;PMS_P1;PMS_P2;Temp;Humidity;BMP_temperature;BMP_pressure;BME280_temperature;BME280_humidity;BME280_pressure;Samples;Min_cycle;Max_cycle;Signal;HPM_P1;HPM_P2
2021/01/08 00:01:46;;;;;;;14.35;8.38;;;17.90;44.90;;;;;;5071750;28;20041;-52
2021/01/08 00:04:13;;;;;;;8.43;6.55;;;17.80;45.00;;;;;;5075618;28;20044;-48
2021/01/08 00:06:41;;;;;;;21.67;17.80;;;17.90;45.10;;;;;;5079079;28;20098;-48
2021/01/08 00:09:07;;;;;;;22.50;16.00;;;17.90;45.50;;;;;;5081090;28;20140;-52
2021/01/08 00:11:35;;;;;;;17.23;12.82;;;17.90;45.70;;;;;;5073632;28;20143;-54
2021/01/08 00:14:03;;;;;;;20.02;11.90;;;17.90;45.80;;;;;;5073421;28;20040;-52
2021/01/08 00:16:33;;;;;;;19.70;11.98;;;17.90;45.80;;;;;;5074627;28;20468;-52
2021/01/08 00:19:00;;;;;;;12.30;10.63;;;17.90;45.90;;;;;;5083187;28;20131;-51
2021/01/08 00:21:36;;;;;;;13.35;11.50;;;17.90;45.90;;;;;;5079613;28;20040;-52
2021/01/08 00:24:04;;;;;;;;;;;17.90;46.00;;;;;;5083723;28;20048;-50
2021/01/08 00:26:32;;;;;;;12.77;10.60;;;17.80;45.70;;;;;;5077855;28;19920;-54
2021/01/08 00:28:58;;;;;;;14.88;10.13;;;17.80;45.90;;;;;;5088332;28;20445;-54
2021/01/08 00:31:25;;;;;;;16.52;10.80;;;17.80;46.00;;;;;;5074926;28;20670;-53
2021/01/08 00:33:51;;;;;;;14.57;10.77;;;17.80;46.00;;;;;;5083462;28;20071;-50
2021/01/08 00:36:18;;;;;;;13.00;10.95;;;17.80;46.00;;;;;;5082783;28;20124;-51
2021/01/08 00:38:45;;;;;;;13.23;11.13;;;17.90;46.10;;;;;;5085829;28;20527;-52
2021/01/08 00:41:12;;;;;;;11.52;9.77;;;17.80;46.00;;;;;;5074537;28;20119;-49
2021/01/08 00:43:39;;;;;;;11.95;9.32;;;17.80;46.00;;;;;;5087089;28;20052;-52
2021/01/08 00:46:05;;;;;;;11.57;9.95;;;17.90;46.20;;;;;;5081815;28;20503;-50
2021/01/08 00:48:32;;;;;;;21.15;9.27;;;17.80;46.00;;;;;;5078916;28;20044;-48
2021/01/08 00:51:02;;;;;;;11.48;8.73;;;17.80;46.00;;;;;;5079522;28;22625;-50
2021/01/08 00:53:30;;;;;;;12.38;8.95;;;17.90;46.00;;;;;;5077484;28;20926;-48
2021/01/08 00:55:57;;;;;;;10.65;9.50;;;17.90;46.00;;;;;;5080883;28;20074;-51
2021/01/08 00:58:26;;;;;;;23.00;9.13;;;17.90;46.00;;;;;;5082105;28;20504;-46
2021/01/08 01:00:53;;;;;;;12.88;10.07;;;17.80;46.00;;;;;;5080482;28;20044;-52
2021/01/08 01:03:19;;;;;;;8.90;8.00;;;17.90;46.60;;;;;;5076576;28;20381;-49
2021/01/08 01:05:46;;;;;;;8.98;8.07;;;17.80;45.90;;;;;;5079000;28;20075;-51
2021/01/08 01:08:12;;;;;;;12.02;7.85;;;17.90;46.00;;;;;;5078866;28;20048;-50
2021/01/08 01:10:39;;;;;;;10.35;7.85;;;17.80;45.90;;;;;;5079200;28;20819;-52
2021/01/08 01:13:06;;;;;;;9.00;7.78;;;17.90;46.00;;;;;;5079368;28;20055;-51
2021/01/08 01:15:33;;;;;;;11.15;8.85;;;17.80;45.90;;;;;;5078036;28;20167;-50
2021/01/08 01:17:59;;;;;;;9.13;8.02;;;17.90;46.00;;;;;;5078713;28;20082;-51
2021/01/08 01:20:26;;;;;;;8.82;7.88;;;17.90;46.00;;;;;;5076121;28;20124;-50
2021/01/08 01:22:53;;;;;;;7.90;7.15;;;17.90;46.00;;;;;;5071277;28;20056;-53
2021/01/08 01:25:19;;;;;;;10.02;7.57;;;17.90;46.00;;;;;;5074755;28;20052;-49
2021/01/08 01:27:46;;;;;;;8.60;7.80;;;17.90;46.00;;;;;;5080361;28;20059;-53
2021/01/08 01:30:14;;;;;;;9.23;7.97;;;17.90;46.00;;;;;;5080319;28;20530;-54
2021/01/08 01:32:42;;;;;;;7.20;6.60;;;17.90;46.00;;;;;;5085630;28;20066;-51
2021/01/08 01:35:09;;;;;;;8.38;7.50;;;17.90;46.00;;;;;;5076242;28;20422;-50
2021/01/08 01:37:36;;;;;;;10.60;7.50;;;17.90;46.00;;;;;;5086557;28;20040;-48
2021/01/08 01:40:04;;;;;;;10.18;6.25;;;17.90;46.00;;;;;;5078105;28;20764;-50
2021/01/08 01:42:32;;;;;;;8.13;6.47;;;17.90;46.00;;;;;;5078994;28;20044;-52
2021/01/08 01:44:58;;;;;;;8.48;6.10;;;17.90;46.00;;;;;;5073689;28;20044;-54
2021/01/08 01:47:25;;;;;;;7.10;6.28;;;17.90;46.00;;;;;;5070543;28;20044;-49
2021/01/08 01:49:53;;;;;;;9.38;6.55;;;17.90;46.00;;;;;;5072017;28;20119;-50
2021/01/08 01:52:19;;;;;;;6.80;6.13;;;17.80;45.90;;;;;;5081300;28;20086;-51
2021/01/08 01:54:46;;;;;;;6.00;5.40;;;17.90;46.00;;;;;;5083469;28;20040;-47
2021/01/08 01:57:13;;;;;;;6.97;5.80;;;17.90;46.00;;;;;;5081432;28;20058;-48
2021/01/08 01:59:39;;;;;;;8.55;5.93;;;17.80;45.90;;;;;;5075630;28;20048;-52
2021/01/08 02:02:18;;;;;;;7.88;6.38;;;17.90;45.90;;;;;;5077130;28;20369;-47
2021/01/08 02:04:44;;;;;;;12.13;5.32;;;17.90;46.00;;;;;;5076299;28;20040;-48
2021/01/08 02:07:12;;;;;;;7.82;5.72;;;17.80;45.90;;;;;;5073760;28;20083;-47
2021/01/08 02:09:39;;;;;;;9.55;6.07;;;17.90;45.90;;;;;;5097524;28;20056;-51
2021/01/08 02:12:06;;;;;;;10.85;5.88;;;17.90;45.90;;;;;;5076640;28;20048;-46
2021/01/08 02:14:35;;;;;;;10.27;6.68;;;17.80;45.90;;;;;;5078209;28;20047;-51
2021/01/08 02:17:03;;;;;;;7.78;5.15;;;17.80;45.90;;;;;;5098030;28;20121;-48
2021/01/08 02:19:35;;;;;;;7.82;5.60;;;17.90;45.90;;;;;;5093182;28;20052;-46
2021/01/08 02:22:09;;;;;;;11.73;4.82;;;17.90;45.90;;;;;;5074735;28;20040;-48
2021/01/08 02:24:41;;;;;;;7.18;5.38;;;17.90;45.90;;;;;;5083770;28;20040;-47
2021/01/08 02:27:09;;;;;;;6.10;5.40;;;17.80;45.90;;;;;;5084938;28;20381;-49
2021/01/08 02:29:36;;;;;;;4.20;3.83;;;17.90;45.90;;;;;;5084551;28;20036;-48
2021/01/08 02:32:03;;;;;;;10.63;4.35;;;17.90;45.80;;;;;;5084433;28;20101;-50
2021/01/08 02:34:30;;;;;;;6.40;4.88;;;17.80;45.80;;;;;;5087049;28;20124;-51
2021/01/08 02:36:58;;;;;;;5.47;3.85;;;17.90;45.90;;;;;;5082514;28;20052;-48
2021/01/08 02:39:25;;;;;;;13.40;4.38;;;17.80;46.40;;;;;;5079666;28;20041;-46
2021/01/08 02:41:54;;;;;;;4.85;4.22;;;17.90;45.80;;;;;;5092942;28;20438;-49
2021/01/08 02:44:24;;;;;;;9.65;4.07;;;17.90;45.80;;;;;;5083842;28;20063;-49
2021/01/08 02:46:51;;;;;;;5.28;4.20;;;17.90;45.80;;;;;;5085098;28;20036;-47
2021/01/08 02:49:18;;;;;;;4.20;3.17;;;17.90;45.80;;;;;;5086645;28;20044;-49
2021/01/08 02:51:45;;;;;;;4.05;3.58;;;17.90;45.80;;;;;;5083840;28;20068;-51
2021/01/08 02:54:12;;;;;;;6.90;4.10;;;17.80;45.80;;;;;;5081976;28;20846;-48
2021/01/08 02:56:45;;;;;;;9.93;3.42;;;17.90;45.80;;;;;;5076285;28;20442;-46
2021/01/08 02:59:14;;;;;;;3.95;3.67;;;17.90;45.80;;;;;;5083817;28;20090;-45
2021/01/08 03:01:43;;;;;;;3.65;3.10;;;17.90;45.80;;;;;;5085678;28;20052;-47
2021/01/08 03:04:10;;;;;;;6.07;3.83;;;17.90;45.80;;;;;;5085406;28;20044;-46
2021/01/08 03:06:40;;;;;;;5.60;3.50;;;17.80;45.60;;;;;;5086375;28;20754;-44
2021/01/08 03:09:07;;;;;;;3.10;2.80;;;17.80;45.70;;;;;;5091709;28;20056;-48
2021/01/08 03:11:33;;;;;;;5.22;3.63;;;17.80;45.60;;;;;;5085329;28;20575;-47
2021/01/08 03:14:00;;;;;;;3.28;2.83;;;17.90;45.60;;;;;;5088932;28;20569;-45
2021/01/08 03:16:27;;;;;;;8.45;2.85;;;17.80;45.60;;;;;;5084122;28;20198;-45
2021/01/08 03:18:54;;;;;;;2.50;2.30;;;17.80;45.50;;;;;;5086623;28;20048;-50
2021/01/08 03:21:20;;;;;;;2.50;2.38;;;17.80;46.10;;;;;;5087127;28;20504;-47
2021/01/08 03:23:47;;;;;;;3.67;2.67;;;17.80;45.50;;;;;;5086829;28;20051;-49
2021/01/08 03:26:13;;;;;;;4.35;2.65;;;17.80;45.50;;;;;;5083738;28;20044;-48
2021/01/08 03:28:41;;;;;;;3.38;3.00;;;17.80;45.60;;;;;;5077848;28;20502;-45
2021/01/08 03:31:07;;;;;;;2.30;2.10;;;17.80;45.50;;;;;;5088782;28;20052;-47
2021/01/08 03:33:34;;;;;;;3.78;2.33;;;17.80;45.50;;;;;;5086322;28;20040;-45
2021/01/08 03:36:01;;;;;;;3.08;2.83;;;17.80;45.50;;;;;;5081460;28;20051;-47
2021/01/08 03:38:28;;;;;;;3.50;2.78;;;17.80;45.50;;;;;;5088280;28;20048;-49
2021/01/08 03:40:55;;;;;;;4.90;2.10;;;17.80;45.50;;;;;;5077425;28;20105;-46
2021/01/08 03:43:21;;;;;;;2.35;1.98;;;17.80;45.50;;;;;;5072023;28;20147;-47
2021/01/08 03:45:48;;;;;;;2.17;2.00;;;17.80;45.50;;;;;;5079594;28;20051;-57
2021/01/08 03:48:14;;;;;;;3.53;2.00;;;17.80;45.50;;;;;;5076122;28;20051;-51
2021/01/08 03:50:41;;;;;;;2.75;2.22;;;17.80;45.50;;;;;;5087049;28;20048;-48
2021/01/08 03:53:08;;;;;;;3.03;2.65;;;17.80;45.60;;;;;;5073967;28;20069;-50
2021/01/08 03:55:35;;;;;;;4.53;2.65;;;17.80;45.60;;;;;;5076600;28;20517;-49
2021/01/08 03:58:01;;;;;;;1.90;1.80;;;17.80;45.70;;;;;;5078994;28;20119;-54
2021/01/08 04:00:28;;;;;;;1.88;1.48;;;17.80;45.70;;;;;;5074681;28;20080;-48
2021/01/08 04:02:55;;;;;;;3.85;2.75;;;17.80;45.70;;;;;;5078827;28;20044;-46
2021/01/08 04:05:21;;;;;;;2.28;1.50;;;17.80;45.70;;;;;;5078674;28;20048;-49
2021/01/08 04:07:48;;;;;;;3.22;1.27;;;17.80;45.70;;;;;;5076783;28;20052;-52
2021/01/08 04:10:15;;;;;;;2.88;1.10;;;17.80;45.70;;;;;;5075478;28;20063;-48
2021/01/08 04:12:42;;;;;;;2.38;2.15;;;17.80;45.70;;;;;;5079244;28;20072;-51
2021/01/08 04:15:09;;;;;;;2.35;2.15;;;17.80;45.70;;;;;;5078010;28;20496;-49
2021/01/08 04:17:35;;;;;;;1.75;1.65;;;17.80;45.70;;;;;;5074519;28;20052;-51
2021/01/08 04:20:02;;;;;;;1.90;1.75;;;17.80;45.70;;;;;;5086510;28;20400;-46
2021/01/08 04:22:29;;;;;;;6.55;2.33;;;17.80;45.70;;;;;;5073547;28;20055;-49
2021/01/08 04:24:55;;;;;;;2.92;1.60;;;17.80;45.70;;;;;;5095222;28;20051;-47
2021/01/08 04:27:23;;;;;;;1.38;1.30;;;17.80;45.60;;;;;;5096512;28;20052;-54
2021/01/08 04:29:49;;;;;;;1.60;1.50;;;17.80;45.60;;;;;;5093068;28;20047;-47
2021/01/08 04:32:16;;;;;;;2.28;2.08;;;17.80;45.60;;;;;;5092322;28;20097;-47
2021/01/08 04:34:42;;;;;;;1.50;1.33;;;17.80;45.60;;;;;;5077356;28;20132;-52
2021/01/08 04:37:09;;;;;;;1.92;1.83;;;17.80;45.60;;;;;;5079622;28;20068;-46
2021/01/08 04:39:35;;;;;;;2.50;1.20;;;17.80;45.60;;;;;;5081651;28;20068;-46
2021/01/08 04:42:03;;;;;;;2.28;1.77;;;17.80;45.60;;;;;;5084963;28;20058;-55
2021/01/08 04:44:31;;;;;;;2.80;1.15;;;17.80;45.60;;;;;;5082993;28;20135;-46
2021/01/08 04:46:58;;;;;;;1.70;1.60;;;17.80;45.60;;;;;;5082853;28;20052;-49
2021/01/08 04:49:25;;;;;;;2.08;1.20;;;17.80;45.60;;;;;;5084707;28;20075;-55
2021/01/08 04:51:53;;;;;;;1.23;1.17;;;17.80;45.70;;;;;;5086183;28;20059;-54
2021/01/08 04:54:20;;;;;;;1.85;1.10;;;17.80;45.60;;;;;;5083511;28;20039;-51
2021/01/08 04:56:49;;;;;;;2.95;1.25;;;17.80;45.60;;;;;;5080791;28;20055;-52
2021/01/08 04:59:15;;;;;;;1.10;1.10;;;17.80;45.60;;;;;;5082780;28;20139;-51
2021/01/08 05:01:43;;;;;;;2.97;1.80;;;17.80;45.70;;;;;;5080901;28;20048;-56
2021/01/08 05:04:10;;;;;;;1.30;1.20;;;17.80;45.70;;;;;;5101349;28;20134;-50
2021/01/08 05:06:37;;;;;;;2.13;1.00;;;17.80;45.70;;;;;;5096835;28;20039;-49
2021/01/08 05:09:03;;;;;;;1.33;0.98;;;17.80;45.70;;;;;;5089225;28;20513;-50
2021/01/08 05:11:31;;;;;;;1.73;0.95;;;17.80;45.70;;;;;;5074433;28;20037;-47
2021/01/08 05:13:59;;;;;;;1.48;0.98;;;17.80;45.70;;;;;;5070754;28;20067;-51
2021/01/08 05:16:28;;;;;;;2.72;1.00;;;17.80;45.70;;;;;;5077182;28;20049;-47
2021/01/08 05:18:57;;;;;;;2.20;0.90;;;17.80;45.70;;;;;;5083178;28;20036;-52
2021/01/08 05:21:25;;;;;;;2.55;1.33;;;17.80;45.70;;;;;;5078889;28;20048;-48
2021/01/08 05:23:51;;;;;;;2.83;0.80;;;17.80;45.60;;;;;;5073659;28;20040;-48
2021/01/08 05:26:19;;;;;;;1.48;0.75;;;17.80;45.70;;;;;;5072221;28;20055;-48
2021/01/08 05:28:50;;;;;;;2.38;1.00;;;17.80;45.70;;;;;;5074674;28;20121;-45
2021/01/08 05:31:17;;;;;;;1.65;0.85;;;17.80;45.70;;;;;;5074808;28;20052;-50
2021/01/08 05:33:44;;;;;;;3.50;0.93;;;17.80;45.60;;;;;;5079811;28;20044;-52
2021/01/08 05:36:12;;;;;;;0.80;0.68;;;17.80;45.70;;;;;;5077809;28;20040;-53
2021/01/08 05:38:43;;;;;;;0.95;0.70;;;17.70;45.60;;;;;;5084686;28;20922;-45
2021/01/08 05:41:11;;;;;;;0.85;0.85;;;17.80;45.70;;;;;;5072026;28;20044;-47
2021/01/08 05:43:41;;;;;;;2.03;1.00;;;17.70;45.50;;;;;;5074324;28;20044;-49
2021/01/08 05:46:10;;;;;;;2.58;0.70;;;17.70;45.50;;;;;;5078152;28;20051;-51
2021/01/08 05:48:39;;;;;;;4.47;1.17;;;17.70;45.50;;;;;;5081152;28;20504;-46
2021/01/08 05:51:06;;;;;;;0.95;0.85;;;17.80;45.60;;;;;;5085462;28;20072;-47
2021/01/08 05:53:35;;;;;;;3.22;0.77;;;17.80;45.60;;;;;;5073049;28;20096;-48
2021/01/08 05:56:01;;;;;;;1.55;0.90;;;17.80;45.60;;;;;;5069873;28;20040;-51
2021/01/08 05:58:28;;;;;;;2.67;0.82;;;17.80;45.60;;;;;;5067751;28;20142;-47
2021/01/08 06:00:57;;;;;;;0.80;0.80;;;17.70;45.60;;;;;;5078683;28;20045;-46
2021/01/08 06:03:25;;;;;;;1.20;0.95;;;17.80;45.70;;;;;;5080610;28;20119;-48
2021/01/08 06:05:56;;;;;;;1.20;0.57;;;17.80;45.70;;;;;;5076880;28;20611;-49
2021/01/08 06:08:25;;;;;;;1.02;0.95;;;17.80;45.70;;;;;;5070970;28;20595;-49
2021/01/08 06:10:55;;;;;;;0.65;0.60;;;17.70;45.60;;;;;;5073459;28;20478;-47
2021/01/08 06:13:25;;;;;;;1.33;0.52;;;17.70;45.60;;;;;;5079824;28;20037;-50
2021/01/08 06:15:54;;;;;;;0.57;0.52;;;17.70;45.50;;;;;;5073813;28;20148;-52
2021/01/08 06:18:22;;;;;;;1.08;0.57;;;17.70;45.50;;;;;;5076701;28;20136;-51
2021/01/08 06:20:51;;;;;;;1.38;0.95;;;17.70;45.50;;;;;;5073795;28;20282;-46
2021/01/08 06:23:39;;;;;;;0.60;0.40;;;17.70;45.50;;;;;;5074153;28;20575;-47
2021/01/08 06:26:07;;;;;;;1.77;0.40;;;17.80;45.50;;;;;;5073862;28;20040;-45
2021/01/08 06:28:37;;;;;;;0.95;0.32;;;17.70;45.40;;;;;;5082572;28;20048;-48
2021/01/08 06:31:12;;;;;;;0.50;0.47;;;17.70;45.50;;;;;;5086238;28;20054;-52
2021/01/08 06:33:39;;;;;;;0.50;0.40;;;17.70;45.50;;;;;;5081545;28;20139;-50
2021/01/08 06:36:18;;;;;;;0.73;0.57;;;17.70;45.40;;;;;;5083702;28;20261;-49
2021/01/08 06:38:47;;;;;;;0.45;0.45;;;17.70;45.40;;;;;;5083615;28;20044;-47
2021/01/08 06:41:17;;;;;;;0.80;0.60;;;17.70;45.40;;;;;;5080630;28;20044;-48
2021/01/08 06:43:49;;;;;;;1.17;0.38;;;17.70;45.40;;;;;;5071432;28;20060;-50
2021/01/08 06:46:26;;;;;;;1.45;0.82;;;17.70;45.30;;;;;;5087542;28;20051;-45
2021/01/08 06:48:57;;;;;;;1.55;0.73;;;17.70;45.30;;;;;;5088213;28;20226;-48
2021/01/08 06:51:29;;;;;;;1.23;0.77;;;17.70;45.30;;;;;;5086254;28;20101;-45
2021/01/08 06:54:01;;;;;;;0.65;0.65;;;17.70;45.30;;;;;;5085880;28;20044;-46
2021/01/08 06:56:30;;;;;;;0.30;0.30;;;17.70;45.30;;;;;;5087305;28;20075;-47
2021/01/08 06:58:57;;;;;;;0.75;0.50;;;17.70;45.30;;;;;;5084806;28;20047;-46
2021/01/08 07:01:42;;;;;;;0.70;0.55;;;17.70;45.30;;;;;;5080833;28;20048;-47
2021/01/08 07:04:11;;;;;;;3.15;0.47;;;17.70;45.30;;;;;;5076478;28;20052;-47
2021/01/08 07:06:38;;;;;;;0.90;0.50;;;17.70;45.30;;;;;;5083319;28;20144;-51
2021/01/08 07:09:07;;;;;;;0.50;0.30;;;17.70;45.30;;;;;;5082785;28;20044;-50
2021/01/08 07:11:36;;;;;;;2.35;0.63;;;17.70;45.30;;;;;;5078166;28;20047;-48
2021/01/08 07:14:05;;;;;;;0.80;0.32;;;17.70;45.30;;;;;;5076253;28;20550;-52
2021/01/08 07:16:32;;;;;;;1.30;0.90;;;17.70;45.40;;;;;;5081493;28;20059;-54
2021/01/08 07:19:08;;;;;;;1.00;0.30;;;17.70;45.30;;;;;;5087665;28;20515;-49
2021/01/08 07:21:35;;;;;;;0.73;0.35;;;17.70;45.30;;;;;;5086732;28;20048;-49
2021/01/08 07:24:03;;;;;;;0.55;0.43;;;17.60;45.30;;;;;;5083248;28;20048;-53
2021/01/08 07:26:30;;;;;;;5.25;0.20;;;17.70;45.40;;;;;;5079219;28;20043;-49
2021/01/08 07:28:58;;;;;;;11.00;1.00;;;17.70;45.40;;;;;;5072096;28;20519;-50
2021/01/08 07:31:31;;;;;;;3.85;0.38;;;17.70;45.40;;;;;;5077540;28;20055;-51
2021/01/08 07:33:59;;;;;;;0.43;0.43;;;17.70;45.30;;;;;;5084092;28;20095;-55
2021/01/08 07:36:27;;;;;;;3.53;0.30;;;17.70;45.40;;;;;;5080472;28;20044;-47
2021/01/08 07:38:55;;;;;;;1.73;0.38;;;17.70;45.40;;;;;;5079568;28;20535;-46
2021/01/08 07:41:39;;;;;;;1.25;0.30;;;17.70;45.30;;;;;;5076693;28;20043;-48
2021/01/08 07:44:32;;;;;;;0.98;0.35;;;17.70;45.40;;;;;;5072465;28;20048;-58
2021/01/08 07:47:22;;;;;;;0.50;0.13;;;17.70;45.30;;;;;;5076994;28;20127;-46
2021/01/08 07:50:17;;;;;;;1.73;0.60;;;17.70;45.60;;;;;;5087171;28;20110;-47
2021/01/08 07:52:45;;;;;;;1.05;0.40;;;17.70;45.50;;;;;;5027736;28;20049;-49
2021/01/08 07:55:12;;;;;;;0.65;0.52;;;17.60;45.50;;;;;;5028404;28;20045;-49
2021/01/08 07:58:02;;;;;;;0.30;0.30;;;17.70;45.60;;;;;;5039146;28;20061;-47
2021/01/08 08:00:31;;;;;;;0.55;0.28;;;17.70;45.50;;;;;;5035118;28;20064;-48
2021/01/08 08:02:59;;;;;;;0.52;0.52;;;17.70;45.60;;;;;;5037270;28;20048;-45
2021/01/08 08:05:27;;;;;;;0.60;0.28;;;17.60;45.50;;;;;;5041956;28;20045;-49
2021/01/08 08:07:56;;;;;;;1.98;0.10;;;17.60;45.50;;;;;;5033334;28;20054;-49
2021/01/08 08:10:25;;;;;;;6.97;0.30;;;17.70;45.60;;;;;;5033203;28;20504;-50
2021/01/08 08:12:52;;;;;;;2.88;0.63;;;17.60;45.60;;;;;;5037719;28;20182;-47
2021/01/08 08:15:19;;;;;;;9.05;0.65;;;17.70;45.60;;;;;;5036290;28;20045;-45
2021/01/08 08:17:48;;;;;;;0.93;0.40;;;17.70;45.80;;;;;;5033189;28;20049;-52
2021/01/08 08:20:22;;;;;;;1.88;0.60;;;17.70;45.90;;;;;;5044071;28;20033;-48
2021/01/08 08:22:49;;;;;;;6.35;0.50;;;17.70;45.80;;;;;;5035396;28;20093;-46
2021/01/08 08:25:28;;;;;;;4.22;0.40;;;17.70;45.90;;;;;;5038516;28;20095;-50
2021/01/08 08:27:57;;;;;;;1.50;0.50;;;17.70;46.00;;;;;;5046982;28;20056;-48
2021/01/08 08:30:25;;;;;;;3.22;0.50;;;17.70;46.00;;;;;;5079735;28;20047;-46
2021/01/08 08:32:53;;;;;;;1.50;0.50;;;17.70;46.00;;;;;;5084321;28;20150;-47
2021/01/08 08:35:20;;;;;;;2.70;0.60;;;17.70;46.00;;;;;;5081519;28;20111;-49
2021/01/08 08:37:48;;;;;;;1.67;0.35;;;17.70;46.10;;;;;;5084754;28;20052;-47
2021/01/08 08:40:16;;;;;;;15.48;0.63;;;17.60;46.10;;;;;;5082516;28;20127;-45
2021/01/08 08:42:48;;;;;;;2.25;0.30;;;17.70;46.10;;;;;;5080613;28;20045;-46
2021/01/08 08:45:21;;;;;;;6.07;0.40;;;17.70;46.10;;;;;;5079436;28;20150;-48
2021/01/08 08:47:50;;;;;;;0.50;0.50;;;17.70;46.10;;;;;;5078739;28;20075;-48
2021/01/08 08:50:19;;;;;;;0.75;0.20;;;17.70;46.00;;;;;;5073581;28;20097;-46
2021/01/08 08:52:46;;;;;;;1.55;0.57;;;17.70;46.70;;;;;;5076228;28;20591;-45
2021/01/08 08:55:26;;;;;;;0.30;0.25;;;17.60;46.60;;;;;;5073658;28;20041;-46
2021/01/08 08:58:05;;;;;;;1.70;0.20;;;17.70;46.10;;;;;;5080475;28;20067;-49
2021/01/08 09:00:33;;;;;;;2.03;0.20;;;17.70;46.20;;;;;;5082117;28;20131;-46
2021/01/08 09:03:00;;;;;;;0.10;0.10;;;17.70;46.20;;;;;;5080199;28;20571;-46
2021/01/08 09:05:34;;;;;;;1.05;0.20;;;17.70;46.10;;;;;;5077834;28;20036;-48
2021/01/08 09:08:08;;;;;;;4.65;0.30;;;17.70;46.20;;;;;;5070657;28;20052;-48
2021/01/08 09:10:39;;;;;;;1.50;0.55;;;17.70;46.10;;;;;;5075763;28;20082;-47
2021/01/08 09:13:11;;;;;;;2.10;0.90;;;17.70;46.10;;;;;;5075989;28;20048;-48
2021/01/08 09:15:49;;;;;;;2.05;0.90;;;17.70;46.20;;;;;;5080166;28;20056;-47
2021/01/08 09:18:26;;;;;;;1.42;0.40;;;17.70;46.20;;;;;;5090982;28;20053;-46
2021/01/08 09:20:59;;;;;;;1.00;0.35;;;17.70;46.20;;;;;;5074748;28;20170;-53
2021/01/08 09:23:29;;;;;;;1.50;0.30;;;17.70;46.20;;;;;;5074399;28;20419;-50
2021/01/08 09:26:01;;;;;;;3.60;0.28;;;17.70;46.50;;;;;;5085112;28;20095;-51
2021/01/08 09:28:28;;;;;;;0.40;0.20;;;17.70;46.60;;;;;;5084999;28;20075;-47
2021/01/08 09:30:55;;;;;;;0.68;0.30;;;17.70;46.70;;;;;;5078565;28;20123;-50
2021/01/08 09:33:22;;;;;;;0.77;0.38;;;17.70;46.70;;;;;;5079977;28;20268;-52
2021/01/08 09:35:50;;;;;;;1.77;0.40;;;17.70;46.90;;;;;;5080162;28;20044;-53
2021/01/08 09:38:24;;;;;;;5.05;0.43;;;17.70;46.90;;;;;;5072751;28;20040;-50
2021/01/08 09:40:50;;;;;;;1.40;0.40;;;17.70;46.90;;;;;;5084716;28;20040;-50
2021/01/08 09:43:18;;;;;;;1.75;0.50;;;17.70;46.80;;;;;;5087995;28;20065;-53
2021/01/08 09:45:45;;;;;;;0.77;0.20;;;17.70;46.80;;;;;;5078325;28;20431;-47
2021/01/08 09:48:22;;;;;;;0.50;0.20;;;17.70;46.90;;;;;;5077896;28;20047;-50
2021/01/08 09:51:00;;;;;;;1.05;0.20;;;17.70;47.00;;;;;;5074059;28;20059;-49
2021/01/08 09:53:27;;;;;;;1.50;0.40;;;17.80;47.10;;;;;;5074546;28;20108;-46
2021/01/08 09:55:54;;;;;;;0.45;0.20;;;17.70;46.80;;;;;;5083912;28;20079;-50
2021/01/08 09:58:21;;;;;;;0.50;0.50;;;17.70;46.70;;;;;;5082883;28;20500;-47
2021/01/08 10:00:50;;;;;;;0.77;0.40;;;17.70;46.70;;;;;;5079422;28;20129;-49
2021/01/08 10:03:19;;;;;;;0.50;0.40;;;17.70;46.80;;;;;;5073887;28;20043;-48
2021/01/08 10:05:46;;;;;;;3.80;0.20;;;17.70;46.90;;;;;;5076392;28;20047;-47
2021/01/08 10:08:20;;;;;;;0.95;0.43;;;17.70;46.80;;;;;;5074516;28;20059;-50
2021/01/08 10:10:48;;;;;;;5.97;0.38;;;17.70;46.90;;;;;;5075236;28;20047;-47
2021/01/08 10:13:17;;;;;;;2.25;0.20;;;17.70;46.70;;;;;;5083155;28;20055;-46
2021/01/08 10:15:46;;;;;;;3.15;0.40;;;17.70;46.70;;;;;;5075460;28;20049;-58
2021/01/08 10:18:14;;;;;;;2.58;0.40;;;17.80;46.60;;;;;;5077171;28;20127;-52
2021/01/08 10:20:48;;;;;;;0.30;0.20;;;17.70;46.50;;;;;;5072176;28;20040;-46
2021/01/08 10:23:17;;;;;;;2.20;0.55;;;17.80;46.70;;;;;;5078703;28;20040;-50
2021/01/08 10:25:44;;;;;;;24.67;0.50;;;17.80;46.50;;;;;;5076355;28;20040;-47
2021/01/08 10:28:17;;;;;;;5.30;0.22;;;17.70;46.60;;;;;;5085293;28;20051;-48
2021/01/08 10:30:45;;;;;;;7.75;0.32;;;17.70;46.70;;;;;;5082925;28;20052;-47
2021/01/08 10:33:12;;;;;;;6.28;0.40;;;17.80;46.80;;;;;;5084011;28;20107;-50
2021/01/08 10:35:45;;;;;;;3.00;0.32;;;17.80;46.80;;;;;;5078934;28;20044;-48
2021/01/08 10:38:12;;;;;;;1.83;1.02;;;17.80;47.00;;;;;;5079940;28;20044;-49
2021/01/08 10:40:38;;;;;;;7.72;0.40;;;17.80;46.90;;;;;;5075683;28;20491;-51
2021/01/08 10:43:05;;;;;;;4.57;0.77;;;17.80;47.00;;;;;;5083213;28;20044;-47
2021/01/08 10:45:33;;;;;;;9.05;0.38;;;17.80;46.90;;;;;;5085046;28;20265;-48
2021/01/08 10:47:59;;;;;;;3.80;0.35;;;17.70;46.80;;;;;;5079575;28;20423;-49
2021/01/08 10:50:26;;;;;;;5.97;0.50;;;17.70;46.80;;;;;;5077090;28;20043;-50
2021/01/08 10:52:52;;;;;;;0.70;0.70;;;17.80;46.80;;;;;;5086119;28;26265;-51
2021/01/08 10:55:19;;;;;;;2.90;0.38;;;17.70;46.70;;;;;;5084587;28;20076;-51
2021/01/08 10:57:46;;;;;;;1.60;0.50;;;17.80;46.50;;;;;;5096524;28;20039;-49
2021/01/08 11:00:17;;;;;;;2.13;0.65;;;17.80;46.40;;;;;;5103192;28;20385;-49
2021/01/08 11:02:44;;;;;;;3.08;0.40;;;17.70;46.20;;;;;;5101387;28;20043;-51
2021/01/08 11:05:11;;;;;;;1.65;0.57;;;17.80;46.20;;;;;;5089038;28;20122;-47
2021/01/08 11:07:38;;;;;;;6.13;0.63;;;17.80;46.10;;;;;;5101864;28;20059;-52
2021/01/08 11:10:07;;;;;;;3.28;0.40;;;17.70;46.00;;;;;;5104015;28;20043;-49
2021/01/08 11:12:34;;;;;;;5.43;0.47;;;17.80;46.10;;;;;;5102559;28;20059;-48
2021/01/08 11:15:01;;;;;;;3.90;0.43;;;17.70;46.00;;;;;;5101231;28;20043;-55
2021/01/08 11:17:30;;;;;;;4.68;1.30;;;17.80;46.00;;;;;;5095793;27;20143;-48
2021/01/08 11:19:57;;;;;;;4.32;0.95;;;17.80;46.40;;;;;;5100676;28;20052;-45
2021/01/08 11:22:25;;;;;;;4.70;0.70;;;17.80;46.90;;;;;;5105756;28;20074;-44
2021/01/08 11:24:52;;;;;;;1.40;0.52;;;17.80;47.30;;;;;;5098157;28;20047;-46
2021/01/08 11:27:19;;;;;;;5.45;0.90;;;17.80;47.60;;;;;;5091747;28;20419;-48
2021/01/08 11:29:46;;;;;;;5.68;1.30;;;17.80;47.90;;;;;;5085716;28;20056;-48
2021/01/08 11:32:13;;;;;;;2.13;1.02;;;17.80;48.10;;;;;;5082733;28;20044;-53
2021/01/08 11:34:40;;;;;;;4.45;1.02;;;17.80;48.40;;;;;;5081489;28;20045;-47
2021/01/08 11:37:10;;;;;;;7.28;2.55;;;17.80;48.60;;;;;;5085940;28;20036;-47
2021/01/08 11:39:37;;;;;;;5.55;0.60;;;17.80;48.80;;;;;;5083608;28;20065;-48
2021/01/08 11:42:04;;;;;;;3.20;1.02;;;17.80;48.80;;;;;;5084965;28;20439;-51
2021/01/08 11:44:31;;;;;;;1.92;0.85;;;17.80;48.90;;;;;;5080498;28;20044;-45
2021/01/08 11:46:58;;;;;;;2.90;1.13;;;17.80;48.60;;;;;;5076985;28;20032;-51
2021/01/08 11:49:24;;;;;;;1.75;0.95;;;17.80;48.60;;;;;;5083602;28;20139;-47
2021/01/08 11:51:56;;;;;;;6.53;1.40;;;17.80;48.50;;;;;;5077921;28;20123;-50
2021/01/08 11:54:24;;;;;;;2.15;1.38;;;17.80;48.60;;;;;;5085049;28;20044;-51
2021/01/08 11:56:50;;;;;;;2.15;1.05;;;17.80;48.50;;;;;;5075828;28;20046;-50
2021/01/08 11:59:17;;;;;;;1.60;0.85;;;17.80;48.50;;;;;;5075693;28;20098;-49
2021/01/08 12:01:44;;;;;;;2.15;0.98;;;17.90;48.60;;;;;;5079124;28;20503;-58
2021/01/08 12:04:11;;;;;;;1.88;0.40;;;17.80;48.50;;;;;;5079773;28;20048;-50
2021/01/08 12:06:38;;;;;;;5.93;0.88;;;17.90;49.30;;;;;;5080114;28;20051;-57
2021/01/08 12:09:08;;;;;;;4.07;1.20;;;17.80;48.60;;;;;;5075273;28;20054;-56
2021/01/08 12:11:36;;;;;;;2.55;1.08;;;17.90;48.70;;;;;;5073746;28;20042;-59
2021/01/08 12:14:02;;;;;;;1.67;1.00;;;17.80;48.60;;;;;;5081325;28;20040;-59
2021/01/08 12:16:31;;;;;;;1.17;0.80;;;17.90;48.60;;;;;;5075344;28;20063;-53
2021/01/08 12:18:58;;;;;;;2.15;0.70;;;17.90;48.60;;;;;;5079093;28;20324;-58
2021/01/08 12:21:25;;;;;;;1.67;1.17;;;17.90;48.60;;;;;;5078817;28;20044;-63
2021/01/08 12:23:52;;;;;;;6.78;0.95;;;17.80;48.50;;;;;;5083318;28;20137;-59
2021/01/08 12:26:21;;;;;;;2.70;0.77;;;17.80;48.50;;;;;;5073785;28;20446;-58
2021/01/08 12:28:49;;;;;;;3.55;1.17;;;17.90;48.60;;;;;;5081468;28;20048;-60
2021/01/08 12:31:22;;;;;;;8.10;0.85;;;17.90;48.60;;;;;;5089102;28;20070;-63
2021/01/08 12:33:48;;;;;;;1.95;1.38;;;17.80;48.60;;;;;;5076754;28;20049;-55
2021/01/08 12:36:17;;;;;;;4.53;1.60;;;17.90;48.70;;;;;;5078093;28;20036;-60
2021/01/08 12:38:43;;;;;;;11.43;2.92;;;17.90;49.00;;;;;;5075248;28;20044;-63
2021/01/08 12:41:10;;;;;;;9.88;3.05;;;17.90;49.30;;;;;;5075979;28;20059;-59
2021/01/08 12:43:37;;;;;;;8.25;2.15;;;17.90;49.50;;;;;;5079016;28;20048;-62
2021/01/08 12:46:05;;;;;;;8.20;2.42;;;17.90;49.70;;;;;;5080087;28;20464;-63
2021/01/08 12:48:31;;;;;;;7.72;2.17;;;17.90;49.70;;;;;;5081501;28;20135;-56
2021/01/08 12:50:58;;;;;;;6.30;4.50;;;17.90;49.60;;;;;;5079218;28;20053;-60
2021/01/08 12:53:24;;;;;;;8.38;2.20;;;17.90;49.80;;;;;;5082867;28;20101;-57